If you wish to contribute or participate in the discussions about articles you are invited to join SKYbrary as a registered user

 Actions

Bamako-Sénou International Airport

From SKYbrary Wiki

GABS
Airport
ICAO: GABS – IATA: BKO
Summary
Name Bamako-Sénou International Airport
Region Africa
Territory Mali ML.gif
Location Bamako, Bamako
Serving Bamako
Elevation 380.086 m
1,247 ft380.086 m
Coordinates 12° 32' 27.33" N, 7° 56' 52.62" W
Runways
Designator Length Width Surface ROPS
6/24 2706 m8,877.953 ft
45 m147.638 ft
ASP yes/yes


METAR
Observation GABS 261800Z VRB03KT 9999 SCT040 38/12 Q1009 NOSIG
Station Bamako / Senou
Date/Time 26 March 2019 18:00:00
Wind direction °
Wind speed 03 kts
Lowest cloud amount scattered clouds
Temperature 38°C
Dew point 12°C
Humidity 21%
QNH 1009 hPa
Weather condition n/a

Bamako's Modibo Keita International Airport (formerly Bamako–Sénou International Airport) is Mali's main airport located approximately 15 km8.099 nm
15,000 m
49,212.598 ft
south of downtown Bamako, the capital of Mali in West Africa.

Climatology

Tropical savannah climate (Köppen climate classification Aw)

Maps

Terrain

Loading map...

Airport Layout

Loading map...


Accidents & Serious Incidents at or in vicinity of GABS

None on SKYbrary